Latest Weather Observations for Butlers Gorge

IDT60801

Issued at 9:35 pm EST Friday 29 August 2014 (issued every 30 minutes, with the page automatically refreshed every 10 minutes)

About weather observations | Map of weather stations | Latest weather observations for TAS | Other Formats
Station Details ID: 096003 Name: BUTLERS GORGE Lat: -42.28 Lon: 146.28 Height: 667.0 m
Data from the previous 72 hours. | See also: Recent months at Butlers Gorge
Date/Time
EST
Temp
°C
App
Temp
°C
Dew
Point
Rel
Hum
%
Delta-T
°C
Wind Press
QNH
hPa
Press
MSL
hPa
Rain
since 9 am
mm
Dir
 
Spd
km/h
Gust
km/h
Spd
kts
Gust
kts
29/09:30pm 1.1 -0.8 0.5 96 0.2 WSW 0 0 0 0 - - 0.0
29/09:00pm 1.6 -0.2 1.0 96 0.2 WSW 0 0 0 0 - - 0.0
29/08:30pm 2.2 0.4 1.5 95 0.3 CALM 0 0 0 0 - - 0.0
29/08:00pm 2.3 0.5 1.4 94 0.4 WSW 0 0 0 0 - - 0.0
29/07:30pm 3.5 1.9 2.6 94 0.4 CALM 0 0 0 0 - - 0.0
29/07:00pm 3.8 2.2 2.3 90 0.6 CALM 0 0 0 0 - - 0.0
29/06:30pm 5.3 3.5 3.6 89 0.7 SW 2 6 1 3 - - 0.0
29/06:00pm 6.3 4.5 3.5 82 1.2 E 2 6 1 3 - - 0.0
29/05:30pm 8.1 6.4 4.1 76 1.8 E 2 9 1 5 - - 0.0
29/05:00pm 10.5 9.3 4.4 66 2.8 CALM 0 6 0 3 - - 0.0
29/04:30pm 14.6 12.4 3.4 47 5.3 ESE 4 7 2 4 - - 0.0
29/04:00pm 14.7 12.1 3.2 46 5.4 N 6 7 3 4 - - 0.0
29/03:30pm 15.0 12.2 3.2 45 5.5 N 7 13 4 7 - - 0.0
29/03:00pm 14.8 11.6 3.0 45 5.5 NW 9 13 5 7 - - 0.0
29/02:30pm 14.6 11.7 2.5 44 5.6 WNW 7 11 4 6 - - 0.0
29/02:00pm 14.4 11.1 2.6 45 5.4 N 9 15 5 8 - - 0.0
29/01:30pm 14.3 11.5 3.2 47 5.2 NNW 7 13 4 7 - - 0.0
29/01:00pm 13.8 11.0 3.3 49 4.9 NW 7 13 4 7 - - 0.0
29/12:30pm 12.5 9.6 2.7 51 4.5 WSW 7 13 4 7 - - 0.0
29/12:00pm 12.1 8.9 3.3 55 4.0 WNW 9 11 5 6 - - 0.0
29/11:30am 11.5 8.3 3.0 56 3.9 W 9 13 5 7 - - 0.0
29/11:00am 10.4 7.6 3.0 60 3.3 W 7 11 4 6 - - 0.0
29/10:30am 9.6 7.0 4.2 69 2.5 W 7 11 4 6 - - 0.0
29/10:00am 8.0 5.5 4.0 76 1.8 W 6 7 3 4 - - 0.0
29/09:30am 4.9 2.3 3.1 88 0.8 WSW 6 11 3 6 - - 0.0
29/09:00am 2.8 1.2 2.4 97 0.2 CALM 0 0 0 0 - - 0.0
29/08:30am -0.3 -2.4 -0.9 96 0.2 CALM 0 0 0 0 - - 0.0
29/08:00am -1.4 -3.7 -2.0 96 0.1 CALM 0 0 0 0 - - 0.0
29/07:30am -3.2 -5.7 -3.9 95 0.1 CALM 0 0 0 0 - - 0.0
29/07:00am -4.0 -6.6 -4.7 95 0.1 CALM 0 0 0 0 - - 0.0
29/06:30am -4.0 -6.6 -4.7 95 0.1 CALM 0 0 0 0 - - 0.0
29/06:00am -3.8 -6.4 -4.5 95 0.1 NNW 0 0 0 0 - - 0.0
29/05:30am -3.8 -6.4 -4.5 95 0.1 CALM 0 0 0 0 - - 0.0
29/05:00am -3.5 -6.0 -4.2 95 0.1 CALM 0 0 0 0 - - 0.0
29/04:30am -3.5 -6.0 -4.2 95 0.1 CALM 0 0 0 0 - - 0.0
29/04:00am -3.4 -5.9 -3.9 96 0.0 CALM 0 0 0 0 - - 0.0
29/03:30am -3.6 -6.1 -4.3 95 0.1 CALM 0 0 0 0 - - 0.0
29/03:00am -3.0 -5.4 -3.5 96 0.0 CALM 0 0 0 0 - - 0.0
29/02:30am -2.5 -4.9 -3.0 96 0.1 CALM 0 0 0 0 - - 0.0
29/02:00am -2.1 -4.4 -2.6 96 0.1 CALM 0 0 0 0 - - 0.0
29/01:30am -1.8 -4.1 -2.2 97 0.1 CALM 0 0 0 0 - - 0.0
29/01:00am -2.0 -4.3 -2.6 96 0.1 CALM 0 0 0 0 - - 0.0
29/12:30am -1.4 -3.7 -2.0 96 0.1 CALM 0 0 0 0 - - 0.0
29/12:00am -1.4 -3.7 -2.0 96 0.1 W 0 0 0 0 - - 0.0
 
Date/Time
EST
Temp
°C
App
Temp
°C
Dew
Point
Rel
Hum
%
Delta-T
°C
Wind Press
QNH
hPa
Press
MSL
hPa
Rain
since 9 am
mm
Dir
 
Spd
km/h
Gust
km/h
Spd
kts
Gust
kts
28/11:30pm -0.1 -2.2 -0.5 97 0.1 CALM 0 0 0 0 - - 0.0
28/11:00pm -0.2 -2.3 -0.8 96 0.2 CALM 0 0 0 0 - - 0.0
28/10:30pm 0.5 -1.5 -0.1 96 0.2 CALM 0 0 0 0 - - 0.0
28/10:00pm 0.9 -2.2 0.2 95 0.3 WSW 6 7 3 4 - - 0.0
28/09:30pm 1.6 -1.0 0.7 94 0.4 WSW 4 7 2 4 - - 0.0
28/09:00pm 2.7 -0.3 1.7 93 0.4 WSW 7 7 4 4 - - 0.0
28/08:30pm 3.6 0.7 2.6 93 0.4 WSW 7 9 4 5 - - 0.0
28/08:00pm 4.6 2.4 3.6 93 0.4 S 4 6 2 3 - - 0.0
28/07:30pm 5.1 2.3 3.4 89 0.7 WSW 7 9 4 5 - - 0.0
28/07:00pm 6.2 3.6 4.2 87 0.9 W 7 9 4 5 - - 0.0
28/06:30pm 7.5 5.1 4.1 79 1.5 WNW 6 7 3 4 - - 0.0
28/06:00pm 9.4 6.9 4.6 72 2.2 WNW 7 13 4 7 - - 0.0
28/05:30pm 10.3 7.7 4.0 65 2.9 WNW 7 11 4 6 - - 0.0
28/05:00pm 11.6 9.0 3.4 57 3.8 NNW 6 9 3 5 - - 0.0
28/04:30pm 12.7 10.0 3.6 54 4.2 N 7 11 4 6 - - 0.0
28/04:00pm 12.6 9.4 3.3 53 4.3 NNW 9 13 5 7 - - 0.0
28/03:30pm 13.1 11.0 3.7 53 4.4 NW 4 11 2 6 - - 0.0
28/03:00pm 13.3 10.3 4.2 54 4.3 N 9 15 5 8 - - 0.0
28/02:30pm 13.5 10.6 4.4 54 4.3 NNW 9 17 5 9 - - 0.0
28/02:00pm 13.2 9.5 4.6 56 4.1 N 13 20 7 11 - - 0.0
28/01:30pm 13.3 10.6 3.9 53 4.4 NNW 7 13 4 7 - - 0.0
28/01:00pm 13.9 10.8 3.4 49 4.9 NW 9 15 5 8 - - 0.0
28/12:30pm 13.5 10.4 3.8 52 4.6 NW 9 15 5 8 - - 0.0
28/12:00pm 12.1 9.1 3.9 57 3.8 W 9 11 5 6 - - 0.0
28/11:30am 11.9 9.0 4.6 61 3.4 W 9 15 5 8 - - 0.0
28/11:00am 11.7 8.7 4.0 59 3.6 W 9 17 5 9 - - 0.0
28/10:30am 10.1 7.5 4.3 67 2.7 W 7 11 4 6 - - 0.0
28/10:00am 9.4 6.8 4.4 71 2.3 W 7 11 4 6 - - 0.0
28/09:30am 8.0 6.3 3.8 75 1.9 W 2 6 1 3 - - 0.0
28/09:00am 6.4 5.2 4.6 88 0.8 CALM 0 0 0 0 - - 0.0
28/08:30am 4.0 2.6 3.4 96 0.3 CALM 0 0 0 0 - - 0.0
28/08:00am 1.3 -0.5 0.9 97 0.2 CALM 0 0 0 0 - - 0.0
28/07:30am 0.0 -2.0 -0.4 97 0.1 CALM 0 0 0 0 - - 0.0
28/07:00am -0.2 -2.3 -0.6 97 0.1 CALM 0 0 0 0 - - 0.0
28/06:30am 0.2 -1.8 -0.2 97 0.1 CALM 0 0 0 0 - - 0.0
28/06:00am 0.3 -1.7 -0.1 97 0.2 CALM 0 0 0 0 - - 0.0
28/05:30am 0.9 -1.0 0.5 97 0.2 CALM 0 0 0 0 - - 0.0
28/05:00am 0.5 -1.5 0.1 97 0.2 CALM 0 0 0 0 - - 0.0
28/04:30am 0.4 -1.6 -0.2 96 0.2 CALM 0 0 0 0 - - 0.0
28/04:00am 0.9 -1.0 0.3 96 0.2 CALM 0 0 0 0 - - 0.0
28/03:30am 1.3 -0.6 0.7 96 0.2 CALM 0 0 0 0 - - 0.0
28/03:00am 1.4 -0.5 0.8 96 0.2 CALM 0 0 0 0 - - 0.0
28/02:30am 2.3 0.6 1.7 96 0.2 CALM 0 0 0 0 - - 0.0
28/02:00am 3.1 1.5 2.5 96 0.2 CALM 0 0 0 0 - - 0.0
28/01:30am 3.4 1.8 2.7 95 0.3 CALM 0 2 0 1 - - 0.0
28/01:00am 3.2 0.5 2.5 95 0.3 NE 6 9 3 5 - - 0.0
28/12:30am 3.7 2.2 3.1 96 0.3 CALM 0 0 0 0 - - 0.0
28/12:00am 3.0 0.6 2.3 95 0.3 NNE 4 7 2 4 - - 0.0
 
Date/Time
EST
Temp
°C
App
Temp
°C
Dew
Point
Rel
Hum
%
Delta-T
°C
Wind Press
QNH
hPa
Press
MSL
hPa
Rain
since 9 am
mm
Dir
 
Spd
km/h
Gust
km/h
Spd
kts
Gust
kts
27/11:30pm 3.9 2.5 3.3 96 0.3 CALM 0 0 0 0 - - 0.0
27/11:00pm 3.0 1.3 2.1 94 0.4 CALM 0 0 0 0 - - 0.0
27/10:30pm 3.9 2.0 3.0 94 0.4 WSW 2 6 1 3 - - 0.0
27/10:00pm 4.1 1.8 2.9 92 0.5 WSW 4 6 2 3 - - 0.0
27/09:30pm 5.3 3.6 4.1 92 0.5 WSW 2 6 1 3 - - 0.0
27/09:00pm 5.8 3.2 4.3 90 0.7 W 7 9 4 5 - - 0.0
27/08:30pm 6.1 3.6 3.9 86 1.0 WSW 6 9 3 5 - - 0.0
27/08:00pm 7.0 5.0 4.5 84 1.1 WSW 4 6 2 3 - - 0.0
27/07:30pm 7.4 5.0 4.5 82 1.3 WSW 6 7 3 4 - - 0.0
27/07:00pm 7.5 5.0 4.5 81 1.4 WSW 7 11 4 6 - - 0.0
27/06:30pm 7.9 5.3 4.1 77 1.7 WSW 7 11 4 6 - - 0.0
27/06:00pm 8.1 6.0 4.1 76 1.8 WNW 4 9 2 5 - - 0.0
27/05:30pm 10.4 7.8 4.3 66 2.8 WNW 7 13 4 7 - - 0.0
27/05:00pm 12.0 9.0 4.0 58 3.7 NW 9 15 5 8 - - 0.0
27/04:30pm 13.8 10.6 3.0 48 5.0 N 9 15 5 8 - - 0.0
27/04:00pm 14.9 11.6 2.4 43 5.8 N 9 15 5 8 - - 0.0
27/03:30pm 15.1 11.4 2.3 42 5.9 NNW 11 19 6 10 - - 0.0
27/03:00pm 15.8 12.5 2.2 40 6.3 NNW 9 15 5 8 - - 0.0
27/02:30pm 16.0 12.6 3.8 44 5.8 NNW 11 20 6 11 - - 0.0
27/02:00pm 15.3 11.6 2.5 42 5.9 NNW 11 17 6 9 - - 0.0
27/01:30pm 15.6 12.4 3.1 43 5.9 WNW 9 15 5 8 - - 0.0
27/01:00pm 15.5 11.7 2.0 40 6.2 NW 11 17 6 9 - - 0.0
27/12:30pm 14.9 11.7 3.1 45 5.5 NW 9 15 5 8 - - 0.0
27/12:00pm 13.9 9.9 2.8 47 5.1 NNW 13 19 7 10 - - 0.0
27/11:30am 14.4 11.3 3.5 48 5.1 NW 9 17 5 9 - - 0.0
27/11:00am 13.2 10.0 3.0 50 4.7 NW 9 15 5 8 - - 0.0
27/10:30am 11.4 7.9 3.7 59 3.6 W 11 15 6 8 - - 0.0
27/10:00am 10.7 7.6 3.7 62 3.2 W 9 13 5 7 - - 0.0
27/09:30am 8.6 7.1 4.8 77 1.8 ESE 2 7 1 4 - - 0.0
27/09:00am 6.0 4.7 4.2 88 0.8 CALM 0 0 0 0 - - 0.0
27/08:30am 2.3 0.5 1.4 94 0.4 CALM 0 0 0 0 - - 0.0
27/08:00am 0.5 -1.5 -0.1 96 0.2 CALM 0 0 0 0 - - 0.0
27/07:30am -1.6 -3.9 -2.2 96 0.1 CALM 0 0 0 0 - - 0.0
27/07:00am -1.1 -4.4 -1.5 97 0.1 WSW 6 9 3 5 - - 0.0
27/06:30am -0.7 -4.0 -1.0 98 0.1 WSW 6 9 3 5 - - 0.0
27/06:00am -0.5 -3.9 -0.9 97 0.1 WSW 7 11 4 6 - - 0.0
27/05:30am -0.8 -4.1 -1.2 97 0.1 WSW 6 9 3 5 - - 0.0
27/05:00am -0.7 -4.2 -1.1 97 0.1 WSW 7 9 4 5 - - 0.0
27/04:30am -1.0 -4.3 -1.4 97 0.1 WSW 6 7 3 4 - - 0.0
27/04:00am -1.4 -4.0 -1.8 97 0.1 WSW 2 7 1 4 - - 0.0
27/03:30am -0.2 -3.4 -0.6 97 0.1 WSW 6 7 3 4 - - 0.0
27/03:00am -0.3 -3.5 -0.7 97 0.1 WSW 6 9 3 5 - - 0.0
27/02:30am 0.0 -3.2 -0.4 97 0.1 WSW 6 9 3 5 - - 0.0
27/02:00am 0.0 -3.2 -0.4 97 0.1 WSW 6 9 3 5 - - 0.0
27/01:30am 0.3 -3.0 -0.1 97 0.2 WSW 7 11 4 6 - - 0.0
27/01:00am 1.0 -2.2 0.6 97 0.2 WSW 7 9 4 5 - - 0.0
27/12:30am 1.3 -1.7 0.9 97 0.2 WSW 6 9 3 5 - - 0.0
27/12:00am 1.0 -1.7 0.6 97 0.2 WSW 4 7 2 4 - - 0.0
 
Date/Time
EST
Temp
°C
App
Temp
°C
Dew
Point
Rel
Hum
%
Delta-T
°C
Wind Press
QNH
hPa
Press
MSL
hPa
Rain
since 9 am
mm
Dir
 
Spd
km/h
Gust
km/h
Spd
kts
Gust
kts
26/11:30pm 1.1 -1.9 0.7 97 0.2 WSW 6 7 3 4 - - 0.0
26/11:00pm 1.4 -1.6 1.0 97 0.2 WSW 6 9 3 5 - - 0.0
26/10:30pm 1.6 -1.3 1.2 97 0.2 WSW 6 9 3 5 - - 0.0
26/10:00pm 1.8 -1.3 1.2 96 0.2 WSW 7 9 4 5 - - 0.0

Other Formats:

Comma delimited format used in spreadsheet applications
http://www.bom.gov.au/fwo/IDT60801/IDT60801.94959.axf

JavaScript Object Notation format (JSON) in row-major order
http://www.bom.gov.au/fwo/IDT60801/IDT60801.94959.json